sensor_id;sensor_type;location;lat;lon;timestamp;P1;durP1;ratioP1;P2;durP2;ratioP2
34872;SDS011;21084;51.098;14.506;2023-03-02T00:00:59;88.60;;;34.37;;
34872;SDS011;21084;51.098;14.506;2023-03-02T00:03:30;95.72;;;34.25;;
34872;SDS011;21084;51.098;14.506;2023-03-02T00:05:59;90.25;;;34.05;;
34872;SDS011;21084;51.098;14.506;2023-03-02T00:08:28;91.45;;;32.65;;
34872;SDS011;21084;51.098;14.506;2023-03-02T00:10:58;93.28;;;31.75;;
34872;SDS011;21084;51.098;14.506;2023-03-02T00:13:27;88.20;;;34.03;;
34872;SDS011;21084;51.098;14.506;2023-03-02T00:15:56;86.32;;;32.70;;
34872;SDS011;21084;51.098;14.506;2023-03-02T00:18:25;86.72;;;33.55;;
34872;SDS011;21084;51.098;14.506;2023-03-02T00:20:54;93.90;;;33.77;;
34872;SDS011;21084;51.098;14.506;2023-03-02T00:23:23;93.03;;;33.28;;
34872;SDS011;21084;51.098;14.506;2023-03-02T00:25:52;86.55;;;32.65;;
34872;SDS011;21084;51.098;14.506;2023-03-02T00:28:22;94.68;;;32.83;;
34872;SDS011;21084;51.098;14.506;2023-03-02T00:30:50;94.38;;;33.30;;
34872;SDS011;21084;51.098;14.506;2023-03-02T00:33:19;90.60;;;32.93;;
34872;SDS011;21084;51.098;14.506;2023-03-02T00:35:48;95.38;;;33.00;;
34872;SDS011;21084;51.098;14.506;2023-03-02T00:38:16;89.93;;;31.83;;
34872;SDS011;21084;51.098;14.506;2023-03-02T00:40:45;97.82;;;34.47;;
34872;SDS011;21084;51.098;14.506;2023-03-02T00:43:14;94.05;;;32.47;;
34872;SDS011;21084;51.098;14.506;2023-03-02T00:45:44;90.47;;;32.58;;
34872;SDS011;21084;51.098;14.506;2023-03-02T00:48:13;87.32;;;32.72;;
34872;SDS011;21084;51.098;14.506;2023-03-02T00:50:42;90.97;;;33.03;;
34872;SDS011;21084;51.098;14.506;2023-03-02T00:53:10;89.70;;;33.60;;
34872;SDS011;21084;51.098;14.506;2023-03-02T00:55:39;69.93;;;26.67;;
34872;SDS011;21084;51.098;14.506;2023-03-02T00:58:08;93.32;;;32.45;;
34872;SDS011;21084;51.098;14.506;2023-03-02T01:00:36;88.28;;;32.08;;
34872;SDS011;21084;51.098;14.506;2023-03-02T01:03:07;91.70;;;31.70;;
34872;SDS011;21084;51.098;14.506;2023-03-02T01:05:35;91.55;;;34.03;;
34872;SDS011;21084;51.098;14.506;2023-03-02T01:08:04;93.13;;;33.97;;
34872;SDS011;21084;51.098;14.506;2023-03-02T01:10:33;105.13;;;34.13;;
34872;SDS011;21084;51.098;14.506;2023-03-02T01:13:01;101.32;;;34.25;;
34872;SDS011;21084;51.098;14.506;2023-03-02T01:15:31;91.47;;;33.50;;
34872;SDS011;21084;51.098;14.506;2023-03-02T01:18:00;93.07;;;34.60;;
34872;SDS011;21084;51.098;14.506;2023-03-02T01:20:30;96.00;;;32.55;;
34872;SDS011;21084;51.098;14.506;2023-03-02T01:22:58;92.40;;;32.88;;
34872;SDS011;21084;51.098;14.506;2023-03-02T01:25:27;96.17;;;32.83;;
34872;SDS011;21084;51.098;14.506;2023-03-02T01:27:55;104.80;;;35.37;;
34872;SDS011;21084;51.098;14.506;2023-03-02T01:30:24;97.40;;;34.70;;
34872;SDS011;21084;51.098;14.506;2023-03-02T01:32:53;101.50;;;35.37;;
34872;SDS011;21084;51.098;14.506;2023-03-02T01:35:21;99.37;;;35.53;;
34872;SDS011;21084;51.098;14.506;2023-03-02T01:37:52;80.40;;;27.55;;
34872;SDS011;21084;51.098;14.506;2023-03-02T01:40:20;90.07;;;31.60;;
34872;SDS011;21084;51.098;14.506;2023-03-02T01:42:50;101.43;;;34.33;;
34872;SDS011;21084;51.098;14.506;2023-03-02T01:48:07;95.25;;;32.78;;
34872;SDS011;21084;51.098;14.506;2023-03-02T01:50:36;96.28;;;33.80;;
34872;SDS011;21084;51.098;14.506;2023-03-02T01:53:06;94.23;;;33.63;;
34872;SDS011;21084;51.098;14.506;2023-03-02T01:55:35;89.93;;;33.38;;
34872;SDS011;21084;51.098;14.506;2023-03-02T01:58:05;100.72;;;35.92;;
34872;SDS011;21084;51.098;14.506;2023-03-02T02:00:35;93.03;;;32.88;;
34872;SDS011;21084;51.098;14.506;2023-03-02T02:03:05;89.72;;;33.38;;
34872;SDS011;21084;51.098;14.506;2023-03-02T02:05:35;92.22;;;32.25;;
34872;SDS011;21084;51.098;14.506;2023-03-02T02:08:07;88.85;;;32.17;;
34872;SDS011;21084;51.098;14.506;2023-03-02T02:10:35;90.07;;;33.72;;
34872;SDS011;21084;51.098;14.506;2023-03-02T02:13:04;95.72;;;33.55;;
34872;SDS011;21084;51.098;14.506;2023-03-02T02:15:33;96.55;;;34.47;;
34872;SDS011;21084;51.098;14.506;2023-03-02T02:18:02;96.40;;;33.07;;
34872;SDS011;21084;51.098;14.506;2023-03-02T02:20:32;94.75;;;34.08;;
34872;SDS011;21084;51.098;14.506;2023-03-02T02:23:05;91.68;;;34.33;;
34872;SDS011;21084;51.098;14.506;2023-03-02T02:25:43;103.38;;;35.15;;
34872;SDS011;21084;51.098;14.506;2023-03-02T02:28:15;95.85;;;33.38;;
34872;SDS011;21084;51.098;14.506;2023-03-02T02:30:46;103.18;;;35.83;;
34872;SDS011;21084;51.098;14.506;2023-03-02T02:33:18;107.25;;;36.30;;
34872;SDS011;21084;51.098;14.506;2023-03-02T02:35:48;98.35;;;35.13;;
34872;SDS011;21084;51.098;14.506;2023-03-02T02:38:20;101.05;;;34.20;;
34872;SDS011;21084;51.098;14.506;2023-03-02T02:40:50;96.13;;;33.85;;
34872;SDS011;21084;51.098;14.506;2023-03-02T02:43:22;102.25;;;35.88;;
34872;SDS011;21084;51.098;14.506;2023-03-02T02:45:51;99.63;;;33.60;;
34872;SDS011;21084;51.098;14.506;2023-03-02T02:48:22;98.78;;;33.63;;
34872;SDS011;21084;51.098;14.506;2023-03-02T02:50:51;96.57;;;34.40;;
34872;SDS011;21084;51.098;14.506;2023-03-02T02:53:27;98.88;;;34.75;;
34872;SDS011;21084;51.098;14.506;2023-03-02T02:55:56;91.25;;;33.40;;
34872;SDS011;21084;51.098;14.506;2023-03-02T02:58:30;98.03;;;33.83;;
34872;SDS011;21084;51.098;14.506;2023-03-02T03:01:01;101.45;;;33.20;;
34872;SDS011;21084;51.098;14.506;2023-03-02T03:03:31;96.70;;;34.75;;
34872;SDS011;21084;51.098;14.506;2023-03-02T03:06:01;98.50;;;34.88;;
34872;SDS011;21084;51.098;14.506;2023-03-02T03:08:53;106.93;;;35.90;;
34872;SDS011;21084;51.098;14.506;2023-03-02T03:11:23;104.55;;;33.88;;
34872;SDS011;21084;51.098;14.506;2023-03-02T03:14:04;106.22;;;34.53;;
34872;SDS011;21084;51.098;14.506;2023-03-02T03:16:34;99.35;;;34.67;;
34872;SDS011;21084;51.098;14.506;2023-03-02T03:19:05;105.40;;;35.80;;
34872;SDS011;21084;51.098;14.506;2023-03-02T03:21:34;99.70;;;34.50;;
34872;SDS011;21084;51.098;14.506;2023-03-02T03:24:03;89.43;;;34.28;;
34872;SDS011;21084;51.098;14.506;2023-03-02T03:26:32;102.15;;;34.88;;
34872;SDS011;21084;51.098;14.506;2023-03-02T03:29:00;101.70;;;36.37;;
34872;SDS011;21084;51.098;14.506;2023-03-02T03:31:31;110.43;;;35.30;;
34872;SDS011;21084;51.098;14.506;2023-03-02T03:33:59;97.53;;;33.88;;
34872;SDS011;21084;51.098;14.506;2023-03-02T03:36:28;103.50;;;36.33;;
34872;SDS011;21084;51.098;14.506;2023-03-02T03:38:58;108.60;;;36.90;;
34872;SDS011;21084;51.098;14.506;2023-03-02T03:41:27;104.38;;;36.00;;
34872;SDS011;21084;51.098;14.506;2023-03-02T03:43:56;113.63;;;38.33;;
34872;SDS011;21084;51.098;14.506;2023-03-02T03:46:24;106.70;;;37.22;;
34872;SDS011;21084;51.098;14.506;2023-03-02T03:48:54;111.82;;;36.10;;
34872;SDS011;21084;51.098;14.506;2023-03-02T03:51:23;108.60;;;36.03;;
34872;SDS011;21084;51.098;14.506;2023-03-02T03:53:52;108.30;;;38.42;;
34872;SDS011;21084;51.098;14.506;2023-03-02T03:56:26;104.40;;;36.20;;
34872;SDS011;21084;51.098;14.506;2023-03-02T04:01:32;109.30;;;36.90;;
34872;SDS011;21084;51.098;14.506;2023-03-02T04:04:03;112.50;;;39.85;;
34872;SDS011;21084;51.098;14.506;2023-03-02T04:06:32;111.63;;;40.55;;
34872;SDS011;21084;51.098;14.506;2023-03-02T04:09:01;107.30;;;39.22;;
34872;SDS011;21084;51.098;14.506;2023-03-02T04:11:31;120.20;;;40.92;;
34872;SDS011;21084;51.098;14.506;2023-03-02T04:14:00;116.82;;;41.78;;
34872;SDS011;21084;51.098;14.506;2023-03-02T04:16:29;88.72;;;29.10;;
34872;SDS011;21084;51.098;14.506;2023-03-02T04:18:59;112.82;;;39.05;;
34872;SDS011;21084;51.098;14.506;2023-03-02T04:21:29;112.65;;;39.70;;
34872;SDS011;21084;51.098;14.506;2023-03-02T04:23:58;104.53;;;36.38;;
34872;SDS011;21084;51.098;14.506;2023-03-02T04:26:26;103.87;;;36.93;;
34872;SDS011;21084;51.098;14.506;2023-03-02T04:28:55;112.00;;;39.10;;
34872;SDS011;21084;51.098;14.506;2023-03-02T04:31:24;120.43;;;40.13;;
34872;SDS011;21084;51.098;14.506;2023-03-02T04:33:52;114.05;;;41.40;;
34872;SDS011;21084;51.098;14.506;2023-03-02T04:36:21;126.10;;;41.75;;
34872;SDS011;21084;51.098;14.506;2023-03-02T04:38:51;90.67;;;31.83;;
34872;SDS011;21084;51.098;14.506;2023-03-02T04:41:20;113.47;;;39.90;;
34872;SDS011;21084;51.098;14.506;2023-03-02T04:43:49;108.60;;;39.83;;
34872;SDS011;21084;51.098;14.506;2023-03-02T04:46:19;131.15;;;42.08;;
34872;SDS011;21084;51.098;14.506;2023-03-02T04:48:49;115.78;;;41.17;;
34872;SDS011;21084;51.098;14.506;2023-03-02T04:51:18;114.28;;;40.05;;
34872;SDS011;21084;51.098;14.506;2023-03-02T04:53:51;118.00;;;40.53;;
34872;SDS011;21084;51.098;14.506;2023-03-02T04:56:20;119.15;;;39.75;;
34872;SDS011;21084;51.098;14.506;2023-03-02T04:58:49;110.85;;;38.67;;
34872;SDS011;21084;51.098;14.506;2023-03-02T05:01:18;112.88;;;38.17;;
34872;SDS011;21084;51.098;14.506;2023-03-02T05:03:47;112.40;;;38.22;;
34872;SDS011;21084;51.098;14.506;2023-03-02T05:06:15;103.10;;;37.00;;
34872;SDS011;21084;51.098;14.506;2023-03-02T05:08:44;109.40;;;37.33;;
34872;SDS011;21084;51.098;14.506;2023-03-02T05:11:14;108.88;;;37.40;;
34872;SDS011;21084;51.098;14.506;2023-03-02T05:13:48;113.22;;;39.85;;
34872;SDS011;21084;51.098;14.506;2023-03-02T05:16:16;122.35;;;40.75;;
34872;SDS011;21084;51.098;14.506;2023-03-02T05:18:45;119.15;;;43.00;;
34872;SDS011;21084;51.098;14.506;2023-03-02T05:21:14;125.10;;;43.42;;
34872;SDS011;21084;51.098;14.506;2023-03-02T05:23:43;126.03;;;44.05;;
34872;SDS011;21084;51.098;14.506;2023-03-02T05:26:13;131.48;;;45.25;;
34872;SDS011;21084;51.098;14.506;2023-03-02T05:28:43;128.68;;;45.33;;
34872;SDS011;21084;51.098;14.506;2023-03-02T05:31:12;153.35;;;48.47;;
34872;SDS011;21084;51.098;14.506;2023-03-02T05:33:41;150.07;;;52.70;;
34872;SDS011;21084;51.098;14.506;2023-03-02T05:36:10;146.57;;;49.95;;
34872;SDS011;21084;51.098;14.506;2023-03-02T05:38:39;139.98;;;48.70;;
34872;SDS011;21084;51.098;14.506;2023-03-02T05:41:08;151.90;;;50.95;;
34872;SDS011;21084;51.098;14.506;2023-03-02T05:43:36;143.23;;;49.83;;
34872;SDS011;21084;51.098;14.506;2023-03-02T05:46:06;138.15;;;47.88;;
34872;SDS011;21084;51.098;14.506;2023-03-02T05:48:35;147.00;;;50.22;;
34872;SDS011;21084;51.098;14.506;2023-03-02T05:51:04;138.60;;;48.78;;
34872;SDS011;21084;51.098;14.506;2023-03-02T05:53:33;135.93;;;47.03;;
34872;SDS011;21084;51.098;14.506;2023-03-02T05:56:02;124.97;;;43.17;;
34872;SDS011;21084;51.098;14.506;2023-03-02T05:58:30;126.22;;;45.75;;
34872;SDS011;21084;51.098;14.506;2023-03-02T06:01:00;135.00;;;44.63;;
34872;SDS011;21084;51.098;14.506;2023-03-02T06:03:30;131.65;;;44.13;;
34872;SDS011;21084;51.098;14.506;2023-03-02T06:05:58;129.75;;;43.47;;
34872;SDS011;21084;51.098;14.506;2023-03-02T06:08:27;126.55;;;42.53;;
34872;SDS011;21084;51.098;14.506;2023-03-02T06:10:56;127.30;;;42.25;;
34872;SDS011;21084;51.098;14.506;2023-03-02T06:13:25;121.25;;;42.90;;
34872;SDS011;21084;51.098;14.506;2023-03-02T06:15:53;140.00;;;48.50;;
34872;SDS011;21084;51.098;14.506;2023-03-02T06:18:22;122.00;;;45.72;;
34872;SDS011;21084;51.098;14.506;2023-03-02T06:20:52;130.15;;;45.78;;
34872;SDS011;21084;51.098;14.506;2023-03-02T06:23:21;129.68;;;46.55;;
34872;SDS011;21084;51.098;14.506;2023-03-02T06:25:50;154.10;;;52.33;;
34872;SDS011;21084;51.098;14.506;2023-03-02T06:28:18;148.60;;;52.33;;
34872;SDS011;21084;51.098;14.506;2023-03-02T06:30:48;171.95;;;58.22;;
34872;SDS011;21084;51.098;14.506;2023-03-02T06:33:18;160.48;;;55.05;;
34872;SDS011;21084;51.098;14.506;2023-03-02T06:35:47;161.32;;;57.30;;
34872;SDS011;21084;51.098;14.506;2023-03-02T06:38:18;167.68;;;59.13;;
34872;SDS011;21084;51.098;14.506;2023-03-02T06:40:46;169.65;;;62.33;;
34872;SDS011;21084;51.098;14.506;2023-03-02T06:43:15;225.03;;;81.47;;
34872;SDS011;21084;51.098;14.506;2023-03-02T06:48:13;228.03;;;77.27;;
34872;SDS011;21084;51.098;14.506;2023-03-02T06:50:41;232.03;;;77.37;;
34872;SDS011;21084;51.098;14.506;2023-03-02T06:53:10;239.13;;;79.82;;
34872;SDS011;21084;51.098;14.506;2023-03-02T06:55:42;263.20;;;91.60;;
34872;SDS011;21084;51.098;14.506;2023-03-02T06:58:10;229.43;;;85.40;;
34872;SDS011;21084;51.098;14.506;2023-03-02T07:00:39;247.63;;;88.70;;
34872;SDS011;21084;51.098;14.506;2023-03-02T07:03:07;255.67;;;93.87;;
34872;SDS011;21084;51.098;14.506;2023-03-02T07:05:36;261.33;;;93.57;;
34872;SDS011;21084;51.098;14.506;2023-03-02T07:08:05;235.10;;;88.55;;
34872;SDS011;21084;51.098;14.506;2023-03-02T07:10:33;220.52;;;82.80;;
34872;SDS011;21084;51.098;14.506;2023-03-02T07:13:05;227.30;;;90.60;;
34872;SDS011;21084;51.098;14.506;2023-03-02T07:15:37;291.00;;;112.07;;
34872;SDS011;21084;51.098;14.506;2023-03-02T07:18:06;321.65;;;130.65;;
34872;SDS011;21084;51.098;14.506;2023-03-02T07:20:34;307.98;;;120.00;;
34872;SDS011;21084;51.098;14.506;2023-03-02T07:23:04;265.15;;;100.15;;
34872;SDS011;21084;51.098;14.506;2023-03-02T07:25:32;253.68;;;98.05;;
34872;SDS011;21084;51.098;14.506;2023-03-02T07:28:02;225.50;;;88.10;;
34872;SDS011;21084;51.098;14.506;2023-03-02T07:30:32;227.57;;;83.22;;
34872;SDS011;21084;51.098;14.506;2023-03-02T07:33:01;197.50;;;77.82;;
34872;SDS011;21084;51.098;14.506;2023-03-02T07:35:30;203.98;;;80.55;;
34872;SDS011;21084;51.098;14.506;2023-03-02T07:37:59;187.90;;;75.93;;
34872;SDS011;21084;51.098;14.506;2023-03-02T07:40:28;168.93;;;67.40;;
34872;SDS011;21084;51.098;14.506;2023-03-02T07:42:57;171.70;;;67.03;;
34872;SDS011;21084;51.098;14.506;2023-03-02T07:45:26;184.37;;;67.60;;
34872;SDS011;21084;51.098;14.506;2023-03-02T07:47:56;163.85;;;65.20;;
34872;SDS011;21084;51.098;14.506;2023-03-02T07:50:25;156.13;;;65.55;;
34872;SDS011;21084;51.098;14.506;2023-03-02T07:52:54;152.98;;;62.05;;
34872;SDS011;21084;51.098;14.506;2023-03-02T07:55:25;148.20;;;63.00;;
34872;SDS011;21084;51.098;14.506;2023-03-02T07:57:54;138.20;;;59.85;;
34872;SDS011;21084;51.098;14.506;2023-03-02T08:00:23;133.68;;;56.97;;
34872;SDS011;21084;51.098;14.506;2023-03-02T08:02:52;134.60;;;56.72;;
34872;SDS011;21084;51.098;14.506;2023-03-02T08:05:22;131.90;;;54.47;;
34872;SDS011;21084;51.098;14.506;2023-03-02T08:07:51;125.75;;;53.13;;
34872;SDS011;21084;51.098;14.506;2023-03-02T08:10:20;113.73;;;50.13;;
34872;SDS011;21084;51.098;14.506;2023-03-02T08:12:49;117.28;;;49.90;;
34872;SDS011;21084;51.098;14.506;2023-03-02T08:15:18;111.15;;;50.10;;
34872;SDS011;21084;51.098;14.506;2023-03-02T08:17:47;111.22;;;48.35;;
34872;SDS011;21084;51.098;14.506;2023-03-02T08:20:16;93.22;;;41.55;;
34872;SDS011;21084;51.098;14.506;2023-03-02T08:22:46;94.88;;;43.53;;
34872;SDS011;21084;51.098;14.506;2023-03-02T08:25:15;93.80;;;42.42;;
34872;SDS011;21084;51.098;14.506;2023-03-02T08:27:44;92.65;;;42.47;;
34872;SDS011;21084;51.098;14.506;2023-03-02T08:30:13;106.43;;;46.47;;
34872;SDS011;21084;51.098;14.506;2023-03-02T08:32:42;112.13;;;49.22;;
34872;SDS011;21084;51.098;14.506;2023-03-02T08:35:11;106.50;;;47.38;;
34872;SDS011;21084;51.098;14.506;2023-03-02T08:37:40;112.25;;;49.75;;
34872;SDS011;21084;51.098;14.506;2023-03-02T08:40:13;97.67;;;46.23;;
34872;SDS011;21084;51.098;14.506;2023-03-02T08:42:41;114.45;;;50.05;;
34872;SDS011;21084;51.098;14.506;2023-03-02T08:45:10;104.97;;;45.90;;
34872;SDS011;21084;51.098;14.506;2023-03-02T08:47:39;121.47;;;52.83;;
34872;SDS011;21084;51.098;14.506;2023-03-02T08:50:09;115.53;;;53.55;;
34872;SDS011;21084;51.098;14.506;2023-03-02T08:55:08;98.50;;;44.50;;
34872;SDS011;21084;51.098;14.506;2023-03-02T08:57:39;95.03;;;44.28;;
34872;SDS011;21084;51.098;14.506;2023-03-02T09:00:12;83.35;;;37.08;;
34872;SDS011;21084;51.098;14.506;2023-03-02T09:02:47;60.08;;;28.00;;
34872;SDS011;21084;51.098;14.506;2023-03-02T09:05:16;52.35;;;25.33;;
34872;SDS011;21084;51.098;14.506;2023-03-02T09:07:49;52.50;;;23.05;;
34872;SDS011;21084;51.098;14.506;2023-03-02T09:10:18;56.63;;;24.33;;
34872;SDS011;21084;51.098;14.506;2023-03-02T09:12:49;51.17;;;24.27;;
34872;SDS011;21084;51.098;14.506;2023-03-02T09:15:18;55.47;;;25.00;;
34872;SDS011;21084;51.098;14.506;2023-03-02T09:17:47;56.97;;;25.08;;
34872;SDS011;21084;51.098;14.506;2023-03-02T09:20:16;50.45;;;23.13;;
34872;SDS011;21084;51.098;14.506;2023-03-02T09:22:45;49.30;;;23.73;;
34872;SDS011;21084;51.098;14.506;2023-03-02T09:25:16;55.50;;;24.42;;
34872;SDS011;21084;51.098;14.506;2023-03-02T09:27:45;49.65;;;23.27;;
34872;SDS011;21084;51.098;14.506;2023-03-02T09:30:16;51.88;;;23.65;;
34872;SDS011;21084;51.098;14.506;2023-03-02T09:32:45;53.60;;;25.58;;
34872;SDS011;21084;51.098;14.506;2023-03-02T09:35:14;49.03;;;23.15;;
34872;SDS011;21084;51.098;14.506;2023-03-02T09:37:43;51.20;;;24.02;;
34872;SDS011;21084;51.098;14.506;2023-03-02T09:40:14;47.85;;;22.00;;
34872;SDS011;21084;51.098;14.506;2023-03-02T09:45:41;52.10;;;23.23;;
34872;SDS011;21084;51.098;14.506;2023-03-02T09:48:16;54.60;;;24.10;;
34872;SDS011;21084;51.098;14.506;2023-03-02T09:50:51;51.65;;;24.63;;
34872;SDS011;21084;51.098;14.506;2023-03-02T09:56:16;52.20;;;25.33;;
34872;SDS011;21084;51.098;14.506;2023-03-02T09:58:48;55.00;;;25.42;;
34872;SDS011;21084;51.098;14.506;2023-03-02T10:01:28;53.45;;;25.05;;
34872;SDS011;21084;51.098;14.506;2023-03-02T10:04:02;54.72;;;26.45;;
34872;SDS011;21084;51.098;14.506;2023-03-02T10:06:33;61.60;;;28.13;;
34872;SDS011;21084;51.098;14.506;2023-03-02T10:09:02;61.27;;;27.97;;
34872;SDS011;21084;51.098;14.506;2023-03-02T10:11:33;61.20;;;28.92;;
34872;SDS011;21084;51.098;14.506;2023-03-02T10:14:05;60.75;;;28.17;;
34872;SDS011;21084;51.098;14.506;2023-03-02T10:16:42;56.88;;;27.83;;
34872;SDS011;21084;51.098;14.506;2023-03-02T10:19:16;60.28;;;28.75;;
34872;SDS011;21084;51.098;14.506;2023-03-02T10:21:49;60.53;;;28.95;;
34872;SDS011;21084;51.098;14.506;2023-03-02T10:24:20;58.22;;;26.60;;
34872;SDS011;21084;51.098;14.506;2023-03-02T10:26:56;55.70;;;27.35;;
34872;SDS011;21084;51.098;14.506;2023-03-02T10:29:29;56.80;;;26.20;;
34872;SDS011;21084;51.098;14.506;2023-03-02T10:32:03;58.47;;;27.88;;
34872;SDS011;21084;51.098;14.506;2023-03-02T10:34:36;56.05;;;27.10;;
34872;SDS011;21084;51.098;14.506;2023-03-02T10:37:08;54.97;;;27.58;;
34872;SDS011;21084;51.098;14.506;2023-03-02T10:39:40;54.28;;;28.08;;
34872;SDS011;21084;51.098;14.506;2023-03-02T10:42:10;61.78;;;29.25;;
34872;SDS011;21084;51.098;14.506;2023-03-02T10:44:41;62.50;;;29.10;;
34872;SDS011;21084;51.098;14.506;2023-03-02T10:47:19;59.58;;;29.83;;
34872;SDS011;21084;51.098;14.506;2023-03-02T10:49:49;64.15;;;30.98;;
34872;SDS011;21084;51.098;14.506;2023-03-02T10:52:19;60.92;;;30.67;;
34872;SDS011;21084;51.098;14.506;2023-03-02T10:54:48;58.78;;;29.98;;
34872;SDS011;21084;51.098;14.506;2023-03-02T11:00:13;59.55;;;29.52;;
34872;SDS011;21084;51.098;14.506;2023-03-02T11:02:51;55.70;;;27.80;;
34872;SDS011;21084;51.098;14.506;2023-03-02T11:05:22;58.70;;;29.48;;
34872;SDS011;21084;51.098;14.506;2023-03-02T11:07:52;59.70;;;29.90;;
34872;SDS011;21084;51.098;14.506;2023-03-02T11:10:22;57.45;;;29.88;;
34872;SDS011;21084;51.098;14.506;2023-03-02T11:12:52;56.45;;;29.38;;
34872;SDS011;21084;51.098;14.506;2023-03-02T11:15:22;59.30;;;28.38;;
34872;SDS011;21084;51.098;14.506;2023-03-02T11:17:54;52.40;;;28.10;;
34872;SDS011;21084;51.098;14.506;2023-03-02T11:20:24;59.38;;;29.25;;
34872;SDS011;21084;51.098;14.506;2023-03-02T11:22:58;54.90;;;28.92;;
34872;SDS011;21084;51.098;14.506;2023-03-02T11:25:29;54.60;;;27.88;;
34872;SDS011;21084;51.098;14.506;2023-03-02T11:28:00;56.35;;;28.50;;
34872;SDS011;21084;51.098;14.506;2023-03-02T11:30:32;56.63;;;28.55;;
34872;SDS011;21084;51.098;14.506;2023-03-02T11:33:05;56.55;;;29.00;;
34872;SDS011;21084;51.098;14.506;2023-03-02T11:35:36;59.00;;;28.17;;
34872;SDS011;21084;51.098;14.506;2023-03-02T11:38:09;55.25;;;27.60;;
34872;SDS011;21084;51.098;14.506;2023-03-02T11:40:41;62.70;;;29.85;;
34872;SDS011;21084;51.098;14.506;2023-03-02T11:43:12;54.03;;;27.77;;
34872;SDS011;21084;51.098;14.506;2023-03-02T11:45:43;54.40;;;28.45;;
34872;SDS011;21084;51.098;14.506;2023-03-02T11:48:15;53.33;;;25.55;;
34872;SDS011;21084;51.098;14.506;2023-03-02T11:50:47;50.20;;;25.90;;
34872;SDS011;21084;51.098;14.506;2023-03-02T11:53:17;53.28;;;28.17;;
34872;SDS011;21084;51.098;14.506;2023-03-02T11:55:47;55.08;;;27.30;;
34872;SDS011;21084;51.098;14.506;2023-03-02T11:58:17;54.40;;;27.75;;
34872;SDS011;21084;51.098;14.506;2023-03-02T12:00:46;59.38;;;29.10;;
34872;SDS011;21084;51.098;14.506;2023-03-02T12:03:20;59.92;;;30.73;;
34872;SDS011;21084;51.098;14.506;2023-03-02T12:05:59;57.65;;;28.35;;
34872;SDS011;21084;51.098;14.506;2023-03-02T12:08:34;55.92;;;29.63;;
34872;SDS011;21084;51.098;14.506;2023-03-02T12:11:04;58.55;;;30.40;;
34872;SDS011;21084;51.098;14.506;2023-03-02T12:13:34;49.58;;;27.98;;
34872;SDS011;21084;51.098;14.506;2023-03-02T12:16:03;60.53;;;28.83;;
34872;SDS011;21084;51.098;14.506;2023-03-02T12:18:44;60.80;;;29.70;;
34872;SDS011;21084;51.098;14.506;2023-03-02T12:21:15;56.33;;;28.83;;
34872;SDS011;21084;51.098;14.506;2023-03-02T12:26:22;54.05;;;28.33;;
34872;SDS011;21084;51.098;14.506;2023-03-02T12:28:56;54.70;;;27.15;;
34872;SDS011;21084;51.098;14.506;2023-03-02T12:31:25;53.97;;;27.60;;
34872;SDS011;21084;51.098;14.506;2023-03-02T12:33:55;52.35;;;28.92;;
34872;SDS011;21084;51.098;14.506;2023-03-02T12:36:24;54.35;;;28.67;;
34872;SDS011;21084;51.098;14.506;2023-03-02T12:44:14;49.75;;;25.83;;
34872;SDS011;21084;51.098;14.506;2023-03-02T12:46:50;57.55;;;27.50;;
34872;SDS011;21084;51.098;14.506;2023-03-02T12:49:33;53.75;;;27.05;;
34872;SDS011;21084;51.098;14.506;2023-03-02T12:52:18;53.40;;;26.95;;
34872;SDS011;21084;51.098;14.506;2023-03-02T12:54:57;54.75;;;26.15;;
34872;SDS011;21084;51.098;14.506;2023-03-02T12:57:26;48.42;;;26.50;;
34872;SDS011;21084;51.098;14.506;2023-03-02T12:59:55;50.08;;;26.60;;
34872;SDS011;21084;51.098;14.506;2023-03-02T13:02:25;43.40;;;23.85;;
34872;SDS011;21084;51.098;14.506;2023-03-02T13:04:57;45.30;;;24.15;;
34872;SDS011;21084;51.098;14.506;2023-03-02T13:07:26;45.15;;;23.92;;
34872;SDS011;21084;51.098;14.506;2023-03-02T13:09:56;44.58;;;23.77;;
34872;SDS011;21084;51.098;14.506;2023-03-02T13:12:26;43.00;;;23.77;;
34872;SDS011;21084;51.098;14.506;2023-03-02T13:14:56;41.25;;;22.40;;
34872;SDS011;21084;51.098;14.506;2023-03-02T13:17:26;39.05;;;22.60;;
34872;SDS011;21084;51.098;14.506;2023-03-02T13:19:58;40.22;;;22.13;;
34872;SDS011;21084;51.098;14.506;2023-03-02T13:22:28;41.88;;;22.75;;
34872;SDS011;21084;51.098;14.506;2023-03-02T13:24:57;41.25;;;22.17;;
34872;SDS011;21084;51.098;14.506;2023-03-02T13:27:28;40.08;;;21.48;;
34872;SDS011;21084;51.098;14.506;2023-03-02T13:30:07;36.75;;;21.48;;
34872;SDS011;21084;51.098;14.506;2023-03-02T13:32:37;39.03;;;22.80;;
34872;SDS011;21084;51.098;14.506;2023-03-02T13:35:15;35.45;;;20.13;;
34872;SDS011;21084;51.098;14.506;2023-03-02T13:37:45;39.35;;;20.55;;
34872;SDS011;21084;51.098;14.506;2023-03-02T13:40:36;40.58;;;21.67;;
34872;SDS011;21084;51.098;14.506;2023-03-02T13:43:22;38.05;;;20.17;;
34872;SDS011;21084;51.098;14.506;2023-03-02T13:45:52;37.15;;;20.92;;
34872;SDS011;21084;51.098;14.506;2023-03-02T13:48:22;35.13;;;19.73;;
34872;SDS011;21084;51.098;14.506;2023-03-02T13:50:52;37.10;;;20.02;;
34872;SDS011;21084;51.098;14.506;2023-03-02T13:53:22;36.67;;;20.50;;
34872;SDS011;21084;51.098;14.506;2023-03-02T13:55:51;39.33;;;20.80;;
34872;SDS011;21084;51.098;14.506;2023-03-02T13:58:21;39.60;;;19.88;;
34872;SDS011;21084;51.098;14.506;2023-03-02T14:00:51;39.00;;;20.38;;
34872;SDS011;21084;51.098;14.506;2023-03-02T14:03:21;34.88;;;20.13;;
34872;SDS011;21084;51.098;14.506;2023-03-02T14:05:50;35.75;;;19.92;;
34872;SDS011;21084;51.098;14.506;2023-03-02T14:08:21;35.95;;;20.75;;
34872;SDS011;21084;51.098;14.506;2023-03-02T14:10:51;35.25;;;20.08;;
34872;SDS011;21084;51.098;14.506;2023-03-02T14:13:20;35.75;;;19.20;;
34872;SDS011;21084;51.098;14.506;2023-03-02T14:18:24;35.35;;;18.50;;
34872;SDS011;21084;51.098;14.506;2023-03-02T14:20:53;34.70;;;18.42;;
34872;SDS011;21084;51.098;14.506;2023-03-02T14:23:24;42.57;;;20.10;;
34872;SDS011;21084;51.098;14.506;2023-03-02T14:25:54;40.83;;;20.35;;
34872;SDS011;21084;51.098;14.506;2023-03-02T14:28:23;36.83;;;18.87;;
34872;SDS011;21084;51.098;14.506;2023-03-02T14:30:54;35.50;;;18.73;;
34872;SDS011;21084;51.098;14.506;2023-03-02T14:33:23;31.52;;;17.17;;
34872;SDS011;21084;51.098;14.506;2023-03-02T14:35:52;39.20;;;18.63;;
34872;SDS011;21084;51.098;14.506;2023-03-02T14:38:22;30.63;;;17.23;;
34872;SDS011;21084;51.098;14.506;2023-03-02T14:40:53;30.75;;;17.25;;
34872;SDS011;21084;51.098;14.506;2023-03-02T14:43:22;34.25;;;17.13;;
34872;SDS011;21084;51.098;14.506;2023-03-02T14:45:51;26.20;;;15.27;;
34872;SDS011;21084;51.098;14.506;2023-03-02T14:48:20;29.67;;;16.35;;
34872;SDS011;21084;51.098;14.506;2023-03-02T14:50:49;33.05;;;16.45;;